Time;durP1;ratioP1;P1;durP2;ratioP2;P2;SDS_P1;SDS_P2;PMS_P1;PMS_P2;Temp;Humidity;BMP_temperature;BMP_pressure;BME280_temperature;BME280_humidity;BME280_pressure;Samples;Min_cycle;Max_cycle;Signal;HPM_P1;HPM_P2
2021/03/24 00:00:15;;;;;;;77.80;38.63;;;7.10;99.90;;;;;;5034211;28;20175;-75
2021/03/24 00:02:40;;;;;;;76.93;39.28;;;7.00;99.90;;;;;;5015157;28;20175;-75
2021/03/24 00:05:12;;;;;;;92.50;43.10;;;7.00;99.90;;;;;;5034264;28;20257;-74
2021/03/24 00:07:39;;;;;;;87.35;41.20;;;7.00;99.90;;;;;;5015007;28;20176;-74
2021/03/24 00:10:07;;;;;;;83.88;41.72;;;7.00;99.90;;;;;;5033498;28;20192;-75
2021/03/24 00:12:34;;;;;;;77.83;40.10;;;7.00;99.90;;;;;;5013201;28;20208;-74
2021/03/24 00:15:05;;;;;;;80.93;40.28;;;7.00;99.90;;;;;;4996453;28;20176;-75
2021/03/24 00:17:31;;;;;;;81.73;40.93;;;7.00;99.90;;;;;;5032853;28;20204;-74
2021/03/24 00:19:57;;;;;;;77.97;40.03;;;6.90;99.90;;;;;;5016324;28;20588;-74
2021/03/24 00:22:22;;;;;;;77.22;39.22;;;6.90;99.90;;;;;;5015408;28;20563;-74
2021/03/24 00:24:48;;;;;;;82.13;39.23;;;6.90;99.90;;;;;;5033588;28;20195;-75
2021/03/24 00:27:14;;;;;;;72.90;39.17;;;6.90;99.90;;;;;;5031458;28;20175;-74
2021/03/24 00:29:39;;;;;;;78.13;40.00;;;6.90;99.90;;;;;;5015594;28;20180;-74
2021/03/24 00:32:06;;;;;;;77.47;40.30;;;6.90;99.90;;;;;;5032176;28;20175;-75
2021/03/24 00:34:31;;;;;;;71.18;39.35;;;6.80;99.90;;;;;;5015645;28;20263;-75
2021/03/24 00:36:57;;;;;;;71.37;38.43;;;6.70;99.90;;;;;;5014959;28;20263;-74
2021/03/24 00:39:22;;;;;;;80.27;37.80;;;6.60;99.90;;;;;;4999751;28;20552;-75
2021/03/24 00:41:48;;;;;;;86.23;37.83;;;6.60;99.90;;;;;;5015192;28;20528;-74
2021/03/24 00:44:14;;;;;;;85.53;41.93;;;6.70;99.90;;;;;;5033703;28;20532;-74
2021/03/24 00:46:40;;;;;;;73.73;38.57;;;6.70;99.90;;;;;;5014851;28;20222;-74
2021/03/24 00:49:06;;;;;;;75.13;39.57;;;6.70;99.90;;;;;;5015052;28;20176;-77
2021/03/24 00:51:32;;;;;;;78.10;39.80;;;6.60;99.90;;;;;;5015344;28;20564;-75
2021/03/24 00:53:57;;;;;;;81.87;40.90;;;6.60;99.90;;;;;;5030385;28;20180;-75
2021/03/24 00:56:24;;;;;;;81.45;40.10;;;6.60;99.90;;;;;;5032810;28;20640;-75
2021/03/24 00:58:49;;;;;;;89.03;42.93;;;6.60;99.90;;;;;;5014889;28;20215;-75
2021/03/24 01:01:15;;;;;;;88.73;42.70;;;6.60;99.90;;;;;;5015392;28;20210;-74
2021/03/24 01:03:41;;;;;;;76.40;39.42;;;6.50;99.90;;;;;;5014895;28;20172;-74
2021/03/24 01:06:07;;;;;;;77.33;40.83;;;6.40;99.90;;;;;;5033123;28;20200;-75
2021/03/24 01:08:33;;;;;;;78.50;39.53;;;6.40;99.90;;;;;;5032215;28;20176;-75
2021/03/24 01:11:00;;;;;;;74.07;39.77;;;6.40;99.90;;;;;;5032874;28;20763;-75
2021/03/24 01:13:26;;;;;;;76.03;39.47;;;6.40;99.90;;;;;;5014066;28;20203;-75
2021/03/24 01:15:53;;;;;;;78.60;40.27;;;6.30;99.90;;;;;;5032283;28;20178;-75
2021/03/24 01:18:20;;;;;;;74.43;38.37;;;6.30;99.90;;;;;;5014573;28;20594;-75
2021/03/24 01:20:47;;;;;;;77.17;39.83;;;6.20;99.90;;;;;;5014497;28;20176;-75
2021/03/24 01:23:14;;;;;;;80.37;41.47;;;6.30;99.90;;;;;;5032231;28;20180;-74
2021/03/24 01:25:41;;;;;;;77.93;40.03;;;6.30;99.90;;;;;;5032887;28;20212;-75
2021/03/24 01:28:14;;;;;;;84.50;42.43;;;6.30;99.90;;;;;;5031392;28;20207;-75
2021/03/24 01:30:41;;;;;;;83.07;42.73;;;6.30;99.90;;;;;;5032055;28;20211;-75
2021/03/24 01:33:07;;;;;;;92.83;43.40;;;6.20;99.90;;;;;;5032175;28;20176;-74
2021/03/24 01:35:33;;;;;;;89.10;45.37;;;6.20;99.90;;;;;;5015207;28;20187;-75
2021/03/24 01:37:58;;;;;;;92.03;46.33;;;6.20;99.90;;;;;;5030305;28;20648;-76
2021/03/24 01:40:37;;;;;;;87.60;41.97;;;6.20;99.90;;;;;;5013374;28;20238;-75
2021/03/24 01:43:07;;;;;;;86.27;43.70;;;6.20;99.90;;;;;;5033230;28;20302;-75
2021/03/24 01:45:36;;;;;;;88.57;44.87;;;6.20;99.90;;;;;;5013011;28;20743;-75
2021/03/24 01:48:04;;;;;;;100.10;46.67;;;6.20;99.90;;;;;;5030338;28;20180;-75
2021/03/24 01:50:38;;;;;;;110.10;50.63;;;6.30;99.90;;;;;;5015261;28;20624;-75
2021/03/24 01:53:04;;;;;;;105.30;51.17;;;6.40;99.90;;;;;;5030351;28;20176;-76
2021/03/24 01:55:30;;;;;;;102.40;51.13;;;6.50;99.90;;;;;;5032816;28;20188;-75
2021/03/24 01:57:56;;;;;;;98.97;47.57;;;6.60;99.90;;;;;;5031941;28;20184;-75
2021/03/24 02:00:28;;;;;;;100.10;48.80;;;6.60;99.90;;;;;;5031880;28;20191;-75
2021/03/24 02:02:53;;;;;;;98.90;50.33;;;6.60;99.90;;;;;;5031733;28;20176;-75
2021/03/24 02:05:19;;;;;;;95.37;47.77;;;6.60;99.90;;;;;;5032795;28;20204;-75
2021/03/24 02:07:56;;;;;;;118.53;51.50;;;6.60;99.90;;;;;;5032338;28;20251;-75
2021/03/24 02:10:25;;;;;;;109.63;49.07;;;6.60;99.90;;;;;;5032006;28;20186;-74
2021/03/24 02:13:00;;;;;;;107.90;50.73;;;6.70;99.90;;;;;;5031066;28;20211;-76
2021/03/24 02:15:29;;;;;;;113.53;54.17;;;6.70;99.90;;;;;;5032591;28;20211;-75
2021/03/24 02:17:59;;;;;;;101.90;50.95;;;6.70;99.90;;;;;;5031807;28;20234;-75
2021/03/24 02:20:35;;;;;;;107.63;52.77;;;6.70;99.90;;;;;;5032662;28;20187;-75
2021/03/24 02:23:28;;;;;;;104.37;51.80;;;6.70;99.90;;;;;;5032114;28;20583;-75
2021/03/24 02:26:16;;;;;;;101.47;50.40;;;6.70;99.90;;;;;;5016046;28;20588;-75
2021/03/24 02:28:45;;;;;;;104.78;50.13;;;6.70;99.90;;;;;;5025205;28;20535;-75
2021/03/24 02:31:14;;;;;;;99.27;49.80;;;6.60;99.90;;;;;;5035098;28;20542;-75
2021/03/24 02:33:42;;;;;;;106.20;49.90;;;6.60;99.90;;;;;;5035226;28;20180;-75
2021/03/24 02:36:12;;;;;;;110.43;51.87;;;6.60;99.90;;;;;;5017488;28;20278;-75
2021/03/24 02:38:42;;;;;;;121.40;53.47;;;6.60;99.90;;;;;;5017457;28;20198;-75
2021/03/24 02:41:08;;;;;;;113.27;53.60;;;6.60;99.90;;;;;;5015907;28;20172;-75
2021/03/24 02:43:35;;;;;;;109.13;51.47;;;6.70;99.90;;;;;;5028977;28;20179;-75
2021/03/24 02:46:04;;;;;;;104.33;51.37;;;6.70;99.90;;;;;;5035385;28;20208;-75
2021/03/24 02:48:35;;;;;;;100.70;48.10;;;6.70;99.90;;;;;;5034427;28;20180;-75
2021/03/24 02:51:04;;;;;;;103.38;49.97;;;6.70;99.90;;;;;;5035492;28;20176;-76
2021/03/24 02:53:32;;;;;;;97.63;48.58;;;6.70;99.90;;;;;;5034776;28;20180;-75
2021/03/24 02:56:01;;;;;;;105.17;48.27;;;6.70;99.90;;;;;;5034963;28;20203;-75
2021/03/24 02:58:27;;;;;;;106.67;48.77;;;6.60;99.90;;;;;;5015412;28;20233;-74
2021/03/24 03:00:53;;;;;;;99.10;49.57;;;6.60;99.90;;;;;;5033838;28;20184;-75
2021/03/24 03:03:24;;;;;;;101.97;46.87;;;6.60;99.90;;;;;;5034482;28;20259;-75
2021/03/24 03:05:54;;;;;;;94.40;47.57;;;6.60;99.90;;;;;;5035264;28;20212;-74
2021/03/24 03:08:32;;;;;;;92.83;46.67;;;6.50;99.90;;;;;;5033775;28;20652;-75
2021/03/24 03:11:16;;;;;;;99.87;46.27;;;6.50;99.90;;;;;;5033960;28;20184;-74
2021/03/24 03:13:50;;;;;;;98.23;49.33;;;6.50;99.90;;;;;;5034729;28;20188;-75
2021/03/24 03:16:16;;;;;;;103.53;50.00;;;6.40;99.90;;;;;;5035136;28;20175;-75
2021/03/24 03:18:49;;;;;;;97.77;49.33;;;6.40;99.90;;;;;;5034439;28;20259;-75
2021/03/24 03:21:26;;;;;;;100.50;47.97;;;6.30;99.90;;;;;;5017407;28;20177;-74
2021/03/24 03:23:54;;;;;;;93.70;46.87;;;6.20;99.90;;;;;;5016767;28;20270;-75
2021/03/24 03:26:22;;;;;;;89.67;45.10;;;6.20;99.90;;;;;;5017268;28;20703;-75
2021/03/24 03:28:53;;;;;;;94.57;45.67;;;6.20;99.90;;;;;;5033502;28;20215;-75
2021/03/24 03:31:25;;;;;;;99.03;46.93;;;6.10;99.90;;;;;;5034395;28;20266;-75
2021/03/24 03:33:53;;;;;;;100.57;48.97;;;6.00;99.90;;;;;;5016046;28;20225;-75
2021/03/24 03:36:21;;;;;;;101.57;49.17;;;6.10;99.90;;;;;;5033715;28;20190;-75
2021/03/24 03:38:49;;;;;;;99.60;49.73;;;6.10;99.90;;;;;;5033291;28;20279;-75
2021/03/24 03:41:17;;;;;;;99.90;48.60;;;6.10;99.90;;;;;;5034792;28;20164;-75
2021/03/24 03:43:45;;;;;;;99.87;48.23;;;6.00;99.90;;;;;;5034036;28;20171;-75
2021/03/24 03:46:18;;;;;;;98.53;48.33;;;5.90;99.90;;;;;;5034345;28;20558;-75
2021/03/24 03:48:48;;;;;;;100.33;50.17;;;5.80;99.90;;;;;;5013814;28;20230;-75
2021/03/24 03:51:21;;;;;;;101.67;48.97;;;5.80;99.90;;;;;;5015856;28;20188;-75
2021/03/24 03:53:59;;;;;;;112.53;52.27;;;5.80;99.90;;;;;;5033724;28;20203;-75
2021/03/24 03:56:51;;;;;;;107.93;50.63;;;5.80;99.90;;;;;;5033507;28;20188;-75
2021/03/24 03:59:34;;;;;;;105.40;50.47;;;5.80;99.90;;;;;;5033488;28;20179;-75
2021/03/24 04:02:06;;;;;;;114.67;52.27;;;5.80;99.90;;;;;;5015830;28;20183;-76
2021/03/24 04:04:47;;;;;;;97.10;49.73;;;5.80;99.90;;;;;;5016712;28;20235;-75
2021/03/24 04:07:20;;;;;;;108.13;50.67;;;5.80;99.90;;;;;;5033002;28;20190;-75
2021/03/24 04:09:47;;;;;;;103.57;50.70;;;5.80;99.90;;;;;;5034261;28;20199;-75
2021/03/24 04:12:17;;;;;;;99.23;50.70;;;5.80;99.90;;;;;;5015054;28;20200;-75
2021/03/24 04:14:44;;;;;;;103.70;50.57;;;5.70;99.90;;;;;;5034211;28;20609;-75
2021/03/24 04:17:14;;;;;;;95.27;49.30;;;5.60;99.90;;;;;;5015570;28;20187;-74
2021/03/24 04:19:45;;;;;;;100.83;50.50;;;5.60;99.90;;;;;;5033716;28;20172;-75
2021/03/24 04:22:14;;;;;;;120.93;54.03;;;5.60;99.90;;;;;;5032815;28;20184;-74
2021/03/24 04:24:50;;;;;;;102.40;48.93;;;5.70;99.90;;;;;;5034021;28;20168;-75
2021/03/24 04:27:18;;;;;;;105.07;49.30;;;5.60;99.90;;;;;;5032882;28;20183;-74
2021/03/24 04:29:48;;;;;;;101.17;50.13;;;5.70;99.90;;;;;;5031278;28;20187;-75
2021/03/24 04:32:15;;;;;;;102.80;48.87;;;5.70;99.90;;;;;;5033132;28;20202;-75
2021/03/24 04:34:41;;;;;;;101.97;49.50;;;5.60;99.90;;;;;;5033490;28;20168;-75
2021/03/24 04:37:17;;;;;;;102.67;51.47;;;5.70;99.90;;;;;;5032583;28;20180;-75
2021/03/24 04:39:48;;;;;;;107.93;51.43;;;5.60;99.90;;;;;;5031837;28;20636;-75
2021/03/24 04:42:23;;;;;;;104.53;49.93;;;5.60;99.90;;;;;;5033686;28;20183;-76
2021/03/24 04:44:55;;;;;;;106.97;51.17;;;5.50;99.90;;;;;;5032354;28;20628;-74
2021/03/24 04:47:30;;;;;;;130.27;58.00;;;5.50;99.90;;;;;;5032311;28;20195;-75
2021/03/24 04:50:05;;;;;;;114.93;54.03;;;5.60;99.90;;;;;;5033607;28;20168;-75
2021/03/24 04:52:34;;;;;;;112.47;53.77;;;5.60;99.90;;;;;;5032581;28;20251;-75
2021/03/24 04:55:07;;;;;;;120.47;54.63;;;5.60;99.90;;;;;;5033321;28;20587;-75
2021/03/24 04:57:34;;;;;;;109.47;51.30;;;5.60;99.90;;;;;;5032615;28;20690;-75
2021/03/24 05:00:08;;;;;;;119.43;54.10;;;5.60;99.90;;;;;;5014035;28;20184;-75
2021/03/24 05:02:37;;;;;;;118.43;55.17;;;5.60;99.90;;;;;;5032007;28;20205;-75
2021/03/24 05:05:09;;;;;;;116.33;52.33;;;5.60;99.90;;;;;;5033235;28;20164;-75
2021/03/24 05:08:04;;;;;;;104.70;50.00;;;5.60;99.90;;;;;;5032138;28;20255;-75
2021/03/24 05:10:32;;;;;;;94.97;46.03;;;5.60;99.90;;;;;;5033297;28;20192;-74
2021/03/24 05:13:25;;;;;;;105.37;50.83;;;5.50;99.90;;;;;;5014262;28;20537;-74
2021/03/24 05:16:13;;;;;;;114.80;52.23;;;5.50;99.90;;;;;;5014959;28;20190;-75
2021/03/24 05:18:39;;;;;;;142.37;60.63;;;5.50;99.90;;;;;;5032331;28;20645;-74
2021/03/24 05:21:21;;;;;;;125.77;59.80;;;5.50;99.90;;;;;;5015304;28;20251;-75
2021/03/24 05:23:52;;;;;;;125.23;55.87;;;5.60;99.90;;;;;;5030020;28;20656;-74
2021/03/24 05:26:21;;;;;;;120.60;55.67;;;5.60;99.90;;;;;;5015141;28;20215;-74
2021/03/24 05:28:53;;;;;;;119.93;56.73;;;5.60;99.90;;;;;;5030758;28;20186;-75
2021/03/24 05:31:22;;;;;;;122.70;57.63;;;5.60;99.90;;;;;;5032535;28;20183;-75
2021/03/24 05:33:56;;;;;;;120.13;57.47;;;5.50;99.90;;;;;;5032386;28;20190;-75
2021/03/24 05:36:32;;;;;;;119.20;58.23;;;5.50;99.90;;;;;;5032813;28;20168;-75
2021/03/24 05:39:29;;;;;;;122.77;56.20;;;5.50;99.90;;;;;;5032379;28;20215;-74
2021/03/24 05:42:13;;;;;;;124.93;59.23;;;5.50;99.90;;;;;;5014758;28;20580;-75
2021/03/24 05:45:05;;;;;;;122.47;57.87;;;5.60;99.90;;;;;;5033018;28;20183;-75
2021/03/24 05:48:08;;;;;;;124.13;55.60;;;5.70;99.90;;;;;;5014504;28;20184;-75
2021/03/24 05:50:49;;;;;;;129.50;57.50;;;5.80;99.90;;;;;;5032936;28;20164;-75
2021/03/24 05:54:00;;;;;;;133.03;60.97;;;5.90;99.90;;;;;;5014357;28;20628;-75
2021/03/24 05:56:41;;;;;;;127.40;58.43;;;6.10;99.90;;;;;;5014901;28;20188;-75
2021/03/24 06:00:03;;;;;;;119.13;54.47;;;6.20;99.90;;;;;;5031801;28;20190;-74
2021/03/24 06:02:52;;;;;;;116.53;55.57;;;6.30;99.90;;;;;;5002488;28;20282;-74
2021/03/24 06:05:50;;;;;;;109.80;51.97;;;6.30;99.90;;;;;;5036070;28;20200;-75
2021/03/24 06:08:53;;;;;;;132.50;56.30;;;6.40;99.90;;;;;;4998006;28;20548;-75
2021/03/24 06:11:21;;;;;;;121.63;58.60;;;6.50;99.90;;;;;;5036483;28;20176;-75
2021/03/24 06:14:29;;;;;;;118.80;55.17;;;6.60;99.90;;;;;;5017825;28;20180;-75
2021/03/24 06:17:18;;;;;;;111.67;53.07;;;6.70;99.90;;;;;;5014845;28;20644;-75
2021/03/24 06:19:56;;;;;;;115.80;52.87;;;6.70;99.90;;;;;;5036139;28;20176;-75
2021/03/24 06:22:40;;;;;;;107.70;51.30;;;6.70;99.90;;;;;;5005877;28;20628;-75
2021/03/24 06:25:35;;;;;;;115.20;53.93;;;6.80;99.90;;;;;;5018245;28;20255;-75
2021/03/24 06:28:08;;;;;;;99.97;49.07;;;7.00;99.90;;;;;;5034277;28;20230;-74
2021/03/24 06:30:43;;;;;;;101.30;49.80;;;7.20;99.90;;;;;;5035384;28;20172;-75
2021/03/24 06:33:24;;;;;;;105.37;48.97;;;7.40;99.90;;;;;;5017677;28;20176;-75
2021/03/24 06:36:14;;;;;;;89.00;46.08;;;7.50;99.90;;;;;;5018160;28;20266;-75
2021/03/24 06:39:03;;;;;;;96.10;47.23;;;7.80;99.90;;;;;;5035510;28;20629;-75
2021/03/24 06:41:54;;;;;;;95.97;47.00;;;8.00;99.90;;;;;;5017977;28;20180;-75
2021/03/24 06:44:59;;;;;;;87.70;46.40;;;8.20;99.90;;;;;;5036084;28;20179;-75
2021/03/24 06:47:50;;;;;;;93.07;48.28;;;8.50;99.90;;;;;;5035487;28;20216;-74
2021/03/24 06:50:58;;;;;;;93.75;47.70;;;8.80;99.90;;;;;;5029500;28;20180;-75
2021/03/24 06:53:45;;;;;;;89.15;48.25;;;9.00;99.90;;;;;;5035129;28;20165;-74
2021/03/24 06:56:49;;;;;;;89.82;49.28;;;9.30;99.90;;;;;;5017220;28;20250;-75
2021/03/24 06:59:49;;;;;;;94.78;48.67;;;9.60;99.90;;;;;;5016548;28;20224;-74
2021/03/24 07:02:38;;;;;;;95.20;49.42;;;10.10;99.90;;;;;;5034955;28;20645;-75
2021/03/24 07:05:25;;;;;;;95.47;50.03;;;10.60;99.90;;;;;;5035604;28;20675;-75
2021/03/24 07:07:54;;;;;;;90.05;47.90;;;11.00;99.90;;;;;;5034953;28;20176;-75
2021/03/24 07:11:20;;;;;;;86.95;46.80;;;11.40;99.90;;;;;;5015739;28;20176;-76
2021/03/24 07:14:04;;;;;;;83.70;45.33;;;11.60;99.90;;;;;;4993149;28;20213;-75
2021/03/24 07:16:29;;;;;;;82.03;45.05;;;12.10;99.90;;;;;;5025910;28;20576;-75
2021/03/24 07:19:25;;;;;;;81.40;42.58;;;12.70;99.90;;;;;;5016711;28;20176;-76
2021/03/24 07:22:06;;;;;;;75.57;41.83;;;13.90;99.90;;;;;;5023607;28;20250;-75
2021/03/24 07:24:50;;;;;;;73.22;39.83;;;15.90;99.90;;;;;;5035098;28;20574;-75
2021/03/24 07:27:34;;;;;;;66.38;38.22;;;18.00;99.90;;;;;;5033870;28;20211;-75
2021/03/24 07:30:32;;;;;;;67.50;38.90;;;20.30;99.90;;;;;;5032178;28;20191;-77
2021/03/24 07:33:06;;;;;;;71.97;39.40;;;22.00;99.90;;;;;;5030479;28;20168;-75
2021/03/24 07:35:50;;;;;;;56.67;37.33;;;23.70;99.90;;;;;;5033895;28;20267;-75
2021/03/24 07:38:28;;;;;;;52.67;35.65;;;25.00;98.70;;;;;;5030315;28;20219;-76
2021/03/24 07:41:15;;;;;;;52.25;37.13;;;26.10;95.60;;;;;;5030849;28;20187;-75
2021/03/24 07:44:05;;;;;;;50.22;35.97;;;26.70;92.80;;;;;;5034066;28;20215;-76
2021/03/24 07:46:55;;;;;;;51.13;36.22;;;27.00;91.40;;;;;;5033642;28;20232;-75
2021/03/24 07:49:42;;;;;;;51.15;36.53;;;27.20;90.50;;;;;;5014599;28;20641;-77
2021/03/24 07:52:45;;;;;;;55.05;37.42;;;27.20;89.70;;;;;;5017374;28;20653;-76
2021/03/24 07:55:16;;;;;;;56.33;36.05;;;26.90;89.10;;;;;;5014395;28;20624;-76
2021/03/24 07:57:50;;;;;;;54.70;37.40;;;26.70;88.10;;;;;;5021099;28;20187;-76
2021/03/24 08:00:44;;;;;;;59.80;38.67;;;26.90;86.10;;;;;;5032292;28;20191;-77
2021/03/24 08:03:29;;;;;;;49.85;35.05;;;27.00;87.60;;;;;;5033947;28;20176;-76
2021/03/24 08:06:23;;;;;;;56.53;35.97;;;27.40;85.00;;;;;;5032900;28;20219;-76
2021/03/24 08:09:22;;;;;;;49.78;36.75;;;27.50;83.90;;;;;;5034275;28;20206;-76
2021/03/24 08:12:11;;;;;;;53.90;36.78;;;27.00;84.40;;;;;;5032286;28;20585;-76
2021/03/24 08:14:50;;;;;;;56.13;37.40;;;26.90;85.50;;;;;;5016060;28;20271;-76
2021/03/24 08:17:37;;;;;;;60.90;34.88;;;27.70;83.70;;;;;;5033276;28;20183;-75
2021/03/24 08:20:25;;;;;;;60.92;36.55;;;28.00;82.40;;;;;;5033909;28;20183;-76
2021/03/24 08:22:58;;;;;;;54.85;36.67;;;28.40;81.90;;;;;;5015302;28;20258;-75
2021/03/24 08:25:42;;;;;;;58.10;36.38;;;29.10;80.40;;;;;;5033798;28;20566;-76
2021/03/24 08:28:33;;;;;;;54.33;36.47;;;29.50;79.90;;;;;;5032235;28;20176;-76
2021/03/24 08:31:36;;;;;;;53.53;35.30;;;29.70;80.30;;;;;;5032837;28;20176;-76
2021/03/24 08:34:11;;;;;;;49.72;35.95;;;29.70;78.30;;;;;;5032163;28;20214;-76
2021/03/24 08:36:46;;;;;;;50.28;34.08;;;30.20;78.30;;;;;;5014794;28;20187;-76
2021/03/24 08:39:44;;;;;;;48.78;34.33;;;30.90;76.10;;;;;;5033648;28;20262;-77
2021/03/24 08:42:31;;;;;;;59.70;35.97;;;30.70;75.20;;;;;;5015386;28;20204;-76
2021/03/24 08:45:25;;;;;;;53.35;35.63;;;31.00;73.50;;;;;;5033237;28;20266;-76
2021/03/24 08:47:56;;;;;;;53.50;35.25;;;30.80;73.00;;;;;;5014900;28;20233;-76
2021/03/24 08:50:33;;;;;;;54.55;36.38;;;31.20;72.40;;;;;;5032188;28;20191;-76
2021/03/24 08:53:47;;;;;;;53.55;35.80;;;30.60;72.70;;;;;;5033390;28;20258;-76
2021/03/24 08:56:39;;;;;;;53.88;32.28;;;31.10;72.50;;;;;;5011052;28;20286;-76
2021/03/24 08:59:33;;;;;;;52.80;34.40;;;31.50;71.90;;;;;;5007033;28;20187;-76
2021/03/24 09:02:26;;;;;;;48.72;33.70;;;31.30;72.40;;;;;;5032596;28;20203;-76
2021/03/24 09:05:15;;;;;;;56.83;35.30;;;31.40;70.30;;;;;;5032924;28;20180;-76
2021/03/24 09:08:07;;;;;;;59.70;34.65;;;31.40;72.60;;;;;;5027779;28;20253;-76
2021/03/24 09:10:42;;;;;;;53.95;32.92;;;31.40;69.90;;;;;;5032772;28;20183;-75
2021/03/24 09:13:23;;;;;;;62.38;36.40;;;31.00;70.10;;;;;;5033434;28;20184;-76
2021/03/24 09:16:42;;;;;;;51.67;32.08;;;31.20;69.90;;;;;;5014810;28;20192;-77
2021/03/24 09:19:47;;;;;;;56.17;33.72;;;31.50;70.00;;;;;;4955304;28;20583;-75
2021/03/24 09:22:43;;;;;;;51.75;33.22;;;31.40;70.40;;;;;;5032124;28;20218;-78
2021/03/24 09:25:36;;;;;;;47.45;31.38;;;31.40;71.10;;;;;;5033120;28;20178;-76
2021/03/24 09:28:20;;;;;;;51.88;33.13;;;31.70;67.90;;;;;;5032274;28;20640;-76
2021/03/24 09:30:59;;;;;;;45.65;29.60;;;32.10;69.20;;;;;;5031816;28;20176;-76
2021/03/24 09:33:33;;;;;;;53.35;32.90;;;32.90;68.80;;;;;;5033142;28;20165;-75
2021/03/24 09:36:33;;;;;;;48.72;32.85;;;33.10;63.90;;;;;;5036421;28;20179;-76
2021/03/24 09:39:08;;;;;;;46.88;31.83;;;32.50;66.00;;;;;;5018573;28;20184;-76
2021/03/24 09:41:45;;;;;;;45.10;29.70;;;32.50;65.50;;;;;;5036186;28;20171;-76
2021/03/24 09:44:25;;;;;;;38.90;27.52;;;32.30;67.60;;;;;;5037012;28;20163;-76
2021/03/24 09:46:54;;;;;;;52.55;29.67;;;32.50;67.00;;;;;;5017812;28;20199;-76
2021/03/24 09:49:35;;;;;;;43.58;30.88;;;31.60;68.00;;;;;;5036327;28;20195;-75
2021/03/24 09:52:29;;;;;;;43.47;30.63;;;31.70;69.50;;;;;;5018456;28;20628;-75
2021/03/24 09:55:03;;;;;;;44.33;30.20;;;31.90;67.70;;;;;;5018848;28;20164;-77
2021/03/24 09:58:06;;;;;;;41.35;28.75;;;32.30;67.80;;;;;;5017997;28;20195;-76
2021/03/24 10:00:39;;;;;;;49.03;30.02;;;32.50;67.40;;;;;;5016881;28;20180;-76
2021/03/24 10:03:20;;;;;;;41.78;29.80;;;32.30;65.50;;;;;;5035828;28;20643;-76
2021/03/24 10:05:55;;;;;;;49.30;31.58;;;32.00;66.00;;;;;;5018755;28;20204;-76
2021/03/24 10:09:05;;;;;;;43.97;30.08;;;32.10;67.40;;;;;;5018244;28;20531;-76
2021/03/24 10:11:41;;;;;;;43.85;28.92;;;32.10;67.50;;;;;;4988876;28;20192;-76
2021/03/24 10:14:38;;;;;;;41.45;26.58;;;32.30;66.60;;;;;;5017956;28;20182;-76
2021/03/24 10:17:11;;;;;;;41.20;27.17;;;31.00;66.30;;;;;;5032456;28;20220;-76
2021/03/24 10:19:46;;;;;;;44.47;27.83;;;30.40;69.70;;;;;;5036361;28;20160;-75
2021/03/24 10:22:32;;;;;;;43.17;25.05;;;30.90;68.30;;;;;;5035574;28;20214;-76
2021/03/24 10:25:08;;;;;;;41.08;26.75;;;31.00;68.30;;;;;;5035936;28;20178;-75
2021/03/24 10:27:35;;;;;;;45.83;27.90;;;31.40;68.20;;;;;;5034127;28;20241;-76
2021/03/24 10:30:08;;;;;;;39.33;26.92;;;32.00;66.10;;;;;;5035442;28;20184;-75
2021/03/24 10:32:41;;;;;;;40.72;27.23;;;31.70;66.30;;;;;;5036363;28;20244;-76
2021/03/24 10:35:38;;;;;;;39.35;27.15;;;31.10;65.80;;;;;;5034242;28;20229;-78
2021/03/24 10:38:25;;;;;;;46.25;26.75;;;30.70;67.10;;;;;;4997101;28;20242;-77
2021/03/24 10:41:18;;;;;;;38.28;24.63;;;30.80;67.20;;;;;;5034959;28;20183;-77
2021/03/24 10:43:50;;;;;;;36.55;24.70;;;30.70;67.70;;;;;;5035248;28;20176;-76
2021/03/24 10:46:28;;;;;;;35.40;25.77;;;30.60;68.20;;;;;;5035613;28;20207;-77
2021/03/24 10:49:03;;;;;;;36.13;25.17;;;30.50;67.00;;;;;;5034389;28;20180;-76
2021/03/24 10:51:55;;;;;;;40.55;26.50;;;30.70;68.50;;;;;;5017974;28;20606;-77
2021/03/24 10:54:28;;;;;;;39.38;25.45;;;31.00;67.30;;;;;;5015829;28;20176;-76
2021/03/24 10:57:14;;;;;;;39.50;24.88;;;30.80;69.40;;;;;;5017780;28;20215;-79
2021/03/24 10:59:47;;;;;;;30.38;22.92;;;30.60;67.50;;;;;;5018428;28;20178;-75
2021/03/24 11:02:33;;;;;;;31.60;22.40;;;30.80;66.90;;;;;;5017618;28;20164;-76
2021/03/24 11:05:09;;;;;;;31.35;22.38;;;30.70;70.00;;;;;;5034744;28;20186;-75
2021/03/24 11:07:42;;;;;;;27.05;19.67;;;30.70;68.80;;;;;;5017487;28;20702;-75
2021/03/24 11:10:48;;;;;;;28.95;20.02;;;30.10;68.70;;;;;;5016996;28;20202;-76
2021/03/24 11:13:29;;;;;;;27.95;20.00;;;29.40;68.70;;;;;;5016905;28;20214;-76
2021/03/24 11:16:07;;;;;;;30.15;19.67;;;29.70;68.60;;;;;;5017756;28;20543;-77
2021/03/24 11:18:40;;;;;;;28.67;20.55;;;29.50;69.00;;;;;;5034287;28;20662;-76
2021/03/24 11:21:23;;;;;;;30.40;20.58;;;29.40;69.30;;;;;;5014999;28;20238;-76
2021/03/24 11:23:59;;;;;;;28.38;20.65;;;28.90;70.10;;;;;;5035270;28;20168;-76
2021/03/24 11:26:30;;;;;;;34.97;21.85;;;29.20;71.10;;;;;;5034277;28;20207;-76
2021/03/24 11:29:00;;;;;;;31.35;21.73;;;29.30;69.60;;;;;;5033358;28;20406;-76
2021/03/24 11:31:47;;;;;;;33.47;21.90;;;28.60;68.40;;;;;;5034845;28;20504;-75
2021/03/24 11:34:19;;;;;;;36.25;21.83;;;27.90;72.20;;;;;;5034175;28;20180;-75
2021/03/24 11:37:15;;;;;;;28.65;21.38;;;28.60;71.50;;;;;;5034611;28;20551;-79
2021/03/24 11:39:53;;;;;;;33.25;21.70;;;29.30;69.00;;;;;;5025898;28;20337;-76
2021/03/24 11:42:21;;;;;;;30.60;20.58;;;29.00;69.00;;;;;;5034236;28;20211;-76
2021/03/24 11:44:50;;;;;;;34.60;20.92;;;29.00;72.10;;;;;;5034723;28;20164;-75
2021/03/24 11:47:24;;;;;;;29.98;20.15;;;29.10;70.50;;;;;;5033865;28;20228;-75
2021/03/24 11:50:08;;;;;;;35.50;21.92;;;28.30;69.90;;;;;;5033207;28;20616;-76
2021/03/24 11:52:37;;;;;;;34.70;21.67;;;28.10;73.00;;;;;;5013609;28;20656;-75
2021/03/24 11:55:34;;;;;;;35.63;20.77;;;27.90;71.50;;;;;;5015658;28;20176;-76
2021/03/24 11:58:24;;;;;;;28.45;19.55;;;28.70;71.20;;;;;;5016280;28;20274;-75
2021/03/24 12:01:17;;;;;;;29.02;19.38;;;29.00;70.40;;;;;;5015969;28;20652;-76
2021/03/24 12:03:52;;;;;;;34.47;20.52;;;28.70;71.70;;;;;;5033383;28;20223;-77
2021/03/24 12:06:48;;;;;;;32.35;19.63;;;28.70;71.10;;;;;;5034236;28;20199;-75
2021/03/24 12:09:28;;;;;;;26.60;19.65;;;28.70;69.90;;;;;;5033580;28;20184;-75
2021/03/24 12:12:09;;;;;;;26.92;17.30;;;29.20;69.90;;;;;;5033471;28;20637;-75
2021/03/24 12:14:36;;;;;;;29.38;19.13;;;29.00;69.10;;;;;;5033326;28;20230;-75
2021/03/24 12:17:04;;;;;;;30.17;18.95;;;28.70;69.80;;;;;;5032793;28;20190;-76
2021/03/24 12:19:41;;;;;;;27.35;19.25;;;28.30;70.30;;;;;;5016043;28;20164;-75
2021/03/24 12:22:29;;;;;;;27.80;17.20;;;28.50;70.80;;;;;;5033246;28;20183;-76
2021/03/24 12:25:29;;;;;;;27.58;18.63;;;28.20;70.00;;;;;;5016058;28;20168;-75
2021/03/24 12:28:11;;;;;;;26.27;17.50;;;27.50;69.10;;;;;;4989840;28;20192;-77
2021/03/24 12:30:50;;;;;;;27.67;17.15;;;28.10;71.80;;;;;;5032896;28;20179;-75
2021/03/24 12:33:15;;;;;;;27.92;18.27;;;27.80;71.30;;;;;;5032896;28;20632;-75
2021/03/24 12:35:43;;;;;;;33.92;18.13;;;27.30;70.70;;;;;;5033703;28;20218;-75
2021/03/24 12:38:15;;;;;;;28.13;16.27;;;27.20;72.10;;;;;;5014134;28;20196;-74
2021/03/24 12:40:51;;;;;;;23.33;16.27;;;26.90;71.00;;;;;;5028737;28;20252;-78
2021/03/24 12:43:24;;;;;;;25.45;17.65;;;26.80;70.80;;;;;;5029184;28;20336;-75
2021/03/24 12:45:50;;;;;;;24.38;15.80;;;26.70;69.60;;;;;;5033289;28;20200;-76
2021/03/24 12:48:21;;;;;;;22.80;16.70;;;26.40;69.60;;;;;;5014706;28;20183;-75
2021/03/24 12:51:14;;;;;;;34.78;20.83;;;26.30;74.00;;;;;;5015349;28;20238;-76
2021/03/24 12:53:56;;;;;;;24.05;16.48;;;26.20;73.70;;;;;;5014974;28;20178;-76
2021/03/24 12:56:43;;;;;;;31.67;18.55;;;25.60;73.90;;;;;;5015026;28;20186;-76
2021/03/24 12:59:35;;;;;;;24.08;14.98;;;25.30;75.70;;;;;;5031185;28;20180;-76
2021/03/24 13:02:10;;;;;;;24.60;16.45;;;24.70;74.70;;;;;;5033187;28;20172;-75
2021/03/24 13:05:04;;;;;;;30.65;18.25;;;23.90;75.30;;;;;;5031937;28;20176;-76
2021/03/24 13:07:52;;;;;;;79.25;49.67;;;22.50;79.60;;;;;;5014556;28;20722;-75
2021/03/24 13:10:26;;;;;;;39.33;25.65;;;21.00;82.30;;;;;;5033675;28;20171;-76
2021/03/24 13:13:02;;;;;;;63.90;35.30;;;20.50;83.70;;;;;;5032567;28;20190;-76
2021/03/24 13:15:49;;;;;;;43.75;26.08;;;20.10;86.00;;;;;;5033530;28;20187;-76
2021/03/24 13:18:55;;;;;;;34.78;19.85;;;19.80;86.40;;;;;;5031665;28;20266;-76
2021/03/24 13:21:40;;;;;;;32.53;18.67;;;19.70;90.00;;;;;;5032907;28;20318;-75
2021/03/24 13:24:23;;;;;;;41.63;20.15;;;19.60;89.40;;;;;;5032195;28;20171;-75